sensor_id;sensor_type;location;lat;lon;timestamp;pressure;altitude;pressure_sealevel;temperature;humidity
58239;BME280;44037;55.638;37.356;2023-03-03T00:01:35;97745.19;;;-0.56;100.00
58239;BME280;44037;55.638;37.356;2023-03-03T00:04:02;97731.69;;;-0.54;100.00
58239;BME280;44037;55.638;37.356;2023-03-03T00:06:29;97738.53;;;-0.50;100.00
58239;BME280;44037;55.638;37.356;2023-03-03T00:08:56;97737.81;;;-0.45;100.00
58239;BME280;44037;55.638;37.356;2023-03-03T00:11:23;97735.28;;;-0.44;100.00
58239;BME280;44037;55.638;37.356;2023-03-03T00:13:52;97731.13;;;-0.40;100.00
58239;BME280;44037;55.638;37.356;2023-03-03T00:16:24;97726.09;;;-0.37;100.00
58239;BME280;44037;55.638;37.356;2023-03-03T00:18:53;97732.97;;;-0.35;100.00
58239;BME280;44037;55.638;37.356;2023-03-03T00:21:29;97728.72;;;-0.34;100.00
58239;BME280;44037;55.638;37.356;2023-03-03T00:24:10;97724.44;;;-0.37;100.00
58239;BME280;44037;55.638;37.356;2023-03-03T00:26:42;97722.78;;;-0.35;100.00
58239;BME280;44037;55.638;37.356;2023-03-03T00:29:30;97715.16;;;-0.35;100.00
58239;BME280;44037;55.638;37.356;2023-03-03T00:32:21;97714.38;;;-0.31;100.00
58239;BME280;44037;55.638;37.356;2023-03-03T00:34:50;97717.88;;;-0.27;100.00
58239;BME280;44037;55.638;37.356;2023-03-03T00:37:30;97714.53;;;-0.23;100.00
58239;BME280;44037;55.638;37.356;2023-03-03T00:40:19;97705.31;;;-0.19;100.00
58239;BME280;44037;55.638;37.356;2023-03-03T00:42:50;97705.31;;;-0.18;100.00
58239;BME280;44037;55.638;37.356;2023-03-03T00:45:26;97704.59;;;-0.12;100.00
58239;BME280;44037;55.638;37.356;2023-03-03T00:47:54;97700.47;;;-0.07;100.00
58239;BME280;44037;55.638;37.356;2023-03-03T00:50:31;97701.38;;;-0.03;100.00
58239;BME280;44037;55.638;37.356;2023-03-03T00:53:06;97703.13;;;-0.01;100.00
58239;BME280;44037;55.638;37.356;2023-03-03T00:55:36;97695.56;;;0.04;100.00
58239;BME280;44037;55.638;37.356;2023-03-03T01:16:29;97671.28;;;0.22;100.00
58239;BME280;44037;55.638;37.356;2023-03-03T01:18:57;97662.81;;;0.23;100.00
58239;BME280;44037;55.638;37.356;2023-03-03T01:21:24;97665.38;;;0.24;100.00
58239;BME280;44037;55.638;37.356;2023-03-03T01:23:51;97658.56;;;0.23;100.00
58239;BME280;44037;55.638;37.356;2023-03-03T01:26:18;97654.34;;;0.24;100.00
58239;BME280;44037;55.638;37.356;2023-03-03T01:28:45;97657.69;;;0.21;100.00
58239;BME280;44037;55.638;37.356;2023-03-03T01:31:12;97655.06;;;0.17;100.00
58239;BME280;44037;55.638;37.356;2023-03-03T01:33:41;97655.88;;;0.15;100.00
58239;BME280;44037;55.638;37.356;2023-03-03T01:36:08;97652.50;;;0.17;100.00
58239;BME280;44037;55.638;37.356;2023-03-03T01:38:36;97656.72;;;0.14;100.00
58239;BME280;44037;55.638;37.356;2023-03-03T01:41:04;97643.13;;;0.12;100.00
58239;BME280;44037;55.638;37.356;2023-03-03T01:43:32;97648.22;;;0.14;100.00
58239;BME280;44037;55.638;37.356;2023-03-03T01:49:15;97652.50;;;0.17;100.00
58239;BME280;44037;55.638;37.356;2023-03-03T01:51:48;97651.59;;;0.13;100.00
58239;BME280;44037;55.638;37.356;2023-03-03T01:54:20;97645.66;;;0.12;100.00
58239;BME280;44037;55.638;37.356;2023-03-03T01:56:49;97640.56;;;0.12;100.00
58239;BME280;44037;55.638;37.356;2023-03-03T01:59:19;97646.44;;;0.10;100.00
58239;BME280;44037;55.638;37.356;2023-03-03T02:01:47;97643.00;;;0.08;100.00
58239;BME280;44037;55.638;37.356;2023-03-03T02:04:16;97644.63;;;0.03;100.00
58239;BME280;44037;55.638;37.356;2023-03-03T02:06:49;97634.28;;;-0.04;100.00
58239;BME280;44037;55.638;37.356;2023-03-03T02:09:22;97636.81;;;-0.07;100.00
58239;BME280;44037;55.638;37.356;2023-03-03T02:11:56;97638.53;;;-0.04;100.00
58239;BME280;44037;55.638;37.356;2023-03-03T02:14:24;97633.53;;;0.01;100.00
58239;BME280;44037;55.638;37.356;2023-03-03T02:16:51;97628.47;;;0.02;100.00
58239;BME280;44037;55.638;37.356;2023-03-03T02:19:25;97621.72;;;0.04;100.00
58239;BME280;44037;55.638;37.356;2023-03-03T02:21:54;97617.50;;;0.05;100.00
58239;BME280;44037;55.638;37.356;2023-03-03T02:24:26;97617.50;;;0.06;100.00
58239;BME280;44037;55.638;37.356;2023-03-03T02:26:56;97609.88;;;0.08;100.00
58239;BME280;44037;55.638;37.356;2023-03-03T02:29:23;97598.03;;;0.08;100.00
58239;BME280;44037;55.638;37.356;2023-03-03T02:31:51;97603.19;;;0.11;100.00
58239;BME280;44037;55.638;37.356;2023-03-03T02:34:18;97601.56;;;0.17;100.00
58239;BME280;44037;55.638;37.356;2023-03-03T02:36:45;97602.47;;;0.20;100.00
58239;BME280;44037;55.638;37.356;2023-03-03T02:39:15;97603.34;;;0.21;100.00
58239;BME280;44037;55.638;37.356;2023-03-03T02:41:46;97601.69;;;0.23;100.00
58239;BME280;44037;55.638;37.356;2023-03-03T02:44:18;97596.63;;;0.26;100.00
58239;BME280;44037;55.638;37.356;2023-03-03T02:46:47;97588.16;;;0.27;100.00
58239;BME280;44037;55.638;37.356;2023-03-03T02:49:16;97582.28;;;0.29;100.00
58239;BME280;44037;55.638;37.356;2023-03-03T02:51:44;97585.69;;;0.32;100.00
58239;BME280;44037;55.638;37.356;2023-03-03T02:54:12;97589.03;;;0.29;100.00
58239;BME280;44037;55.638;37.356;2023-03-03T02:56:40;97582.28;;;0.29;100.00
58239;BME280;44037;55.638;37.356;2023-03-03T02:59:08;97581.44;;;0.30;100.00
58239;BME280;44037;55.638;37.356;2023-03-03T03:01:36;97576.38;;;0.32;100.00
58239;BME280;44037;55.638;37.356;2023-03-03T03:04:06;97578.97;;;0.35;100.00
58239;BME280;44037;55.638;37.356;2023-03-03T03:06:34;97584.91;;;0.34;100.00
58239;BME280;44037;55.638;37.356;2023-03-03T03:09:01;97575.50;;;0.32;100.00
58239;BME280;44037;55.638;37.356;2023-03-03T03:11:29;97575.41;;;0.27;100.00
58239;BME280;44037;55.638;37.356;2023-03-03T03:13:56;97574.56;;;0.25;100.00
58239;BME280;44037;55.638;37.356;2023-03-03T03:16:23;97571.16;;;0.26;100.00
58239;BME280;44037;55.638;37.356;2023-03-03T03:18:51;97572.03;;;0.26;100.00
58239;BME280;44037;55.638;37.356;2023-03-03T03:21:18;97569.50;;;0.28;100.00
58239;BME280;44037;55.638;37.356;2023-03-03T03:23:46;97574.63;;;0.29;100.00
58239;BME280;44037;55.638;37.356;2023-03-03T03:26:13;97572.88;;;0.27;100.00
58239;BME280;44037;55.638;37.356;2023-03-03T03:28:40;97574.50;;;0.22;100.00
58239;BME280;44037;55.638;37.356;2023-03-03T03:31:07;97569.34;;;0.19;100.00
58239;BME280;44037;55.638;37.356;2023-03-03T03:33:35;97567.63;;;0.18;100.00
58239;BME280;44037;55.638;37.356;2023-03-03T03:36:04;97571.00;;;0.17;100.00
58239;BME280;44037;55.638;37.356;2023-03-03T03:38:32;97570.03;;;0.10;100.00
58239;BME280;44037;55.638;37.356;2023-03-03T03:41:01;97563.19;;;0.06;100.00
58239;BME280;44037;55.638;37.356;2023-03-03T03:43:29;97558.88;;;0.03;100.00
58239;BME280;44037;55.638;37.356;2023-03-03T03:45:56;97558.88;;;0.03;100.00
58239;BME280;44037;55.638;37.356;2023-03-03T03:48:24;97558.88;;;0.02;100.00
58239;BME280;44037;55.638;37.356;2023-03-03T03:50:51;97557.13;;;-0.01;100.00
58239;BME280;44037;55.638;37.356;2023-03-03T03:53:20;97557.16;;;0.01;100.00
58239;BME280;44037;55.638;37.356;2023-03-03T03:55:47;97548.63;;;-0.02;100.00
58239;BME280;44037;55.638;37.356;2023-03-03T03:58:15;97554.44;;;-0.09;100.00
58239;BME280;44037;55.638;37.356;2023-03-03T04:00:43;97557.75;;;-0.13;100.00
58239;BME280;44037;55.638;37.356;2023-03-03T04:03:11;97553.47;;;-0.16;100.00
58239;BME280;44037;55.638;37.356;2023-03-03T04:05:39;97544.94;;;-0.18;100.00
58239;BME280;44037;55.638;37.356;2023-03-03T04:08:06;97534.81;;;-0.14;100.00
58239;BME280;44037;55.638;37.356;2023-03-03T04:10:35;97528.03;;;-0.12;100.00
58239;BME280;44037;55.638;37.356;2023-03-03T04:13:02;97534.84;;;-0.11;100.00
58239;BME280;44037;55.638;37.356;2023-03-03T04:15:29;97527.22;;;-0.11;100.00
58239;BME280;44037;55.638;37.356;2023-03-03T04:17:56;97536.63;;;-0.09;100.00
58239;BME280;44037;55.638;37.356;2023-03-03T04:20:23;97532.38;;;-0.08;100.00
58239;BME280;44037;55.638;37.356;2023-03-03T04:22:51;97534.91;;;-0.08;100.00
58239;BME280;44037;55.638;37.356;2023-03-03T04:25:18;97531.47;;;-0.10;100.00
58239;BME280;44037;55.638;37.356;2023-03-03T04:27:46;97533.19;;;-0.09;100.00
58239;BME280;44037;55.638;37.356;2023-03-03T04:30:15;97531.53;;;-0.07;100.00
58239;BME280;44037;55.638;37.356;2023-03-03T04:32:42;97528.16;;;-0.06;100.00
58239;BME280;44037;55.638;37.356;2023-03-03T04:35:10;97531.56;;;-0.06;100.00
58239;BME280;44037;55.638;37.356;2023-03-03T04:37:37;97532.34;;;-0.10;100.00
58239;BME280;44037;55.638;37.356;2023-03-03T04:40:06;97525.56;;;-0.09;100.00
58239;BME280;44037;55.638;37.356;2023-03-03T04:42:34;97535.88;;;-0.03;100.00
58239;BME280;44037;55.638;37.356;2023-03-03T04:45:03;97532.53;;;0.01;100.00
58239;BME280;44037;55.638;37.356;2023-03-03T04:47:31;97530.84;;;0.02;100.00
58239;BME280;44037;55.638;37.356;2023-03-03T04:49:58;97538.50;;;0.02;100.00
58239;BME280;44037;55.638;37.356;2023-03-03T04:52:26;97535.06;;;0.01;100.00
58239;BME280;44037;55.638;37.356;2023-03-03T04:54:53;97538.50;;;0.03;100.00
58239;BME280;44037;55.638;37.356;2023-03-03T04:57:20;97538.50;;;0.03;100.00
58239;BME280;44037;55.638;37.356;2023-03-03T04:59:47;97543.59;;;0.02;100.00
58239;BME280;44037;55.638;37.356;2023-03-03T05:02:16;97537.63;;;0.01;100.00
58239;BME280;44037;55.638;37.356;2023-03-03T05:04:43;97531.66;;;-0.01;100.00
58239;BME280;44037;55.638;37.356;2023-03-03T05:07:10;97534.22;;;-0.01;100.00
58239;BME280;44037;55.638;37.356;2023-03-03T05:09:37;97535.13;;;0.03;100.00
58239;BME280;44037;55.638;37.356;2023-03-03T05:12:05;97540.28;;;0.06;100.00
58239;BME280;44037;55.638;37.356;2023-03-03T05:14:32;97541.19;;;0.11;100.00
58239;BME280;44037;55.638;37.356;2023-03-03T05:16:59;97538.72;;;0.15;100.00
58239;BME280;44037;55.638;37.356;2023-03-03T05:19:28;97546.41;;;0.19;100.00
58239;BME280;44037;55.638;37.356;2023-03-03T05:21:55;97543.03;;;0.18;100.00
58239;BME280;44037;55.638;37.356;2023-03-03T05:24:23;97543.06;;;0.21;100.00
58239;BME280;44037;55.638;37.356;2023-03-03T05:26:50;97536.34;;;0.25;100.00
58239;BME280;44037;55.638;37.356;2023-03-03T05:29:17;97547.38;;;0.25;100.00
58239;BME280;44037;55.638;37.356;2023-03-03T05:31:44;97547.38;;;0.24;100.00
58239;BME280;44037;55.638;37.356;2023-03-03T05:34:11;97545.66;;;0.23;100.00
58239;BME280;44037;55.638;37.356;2023-03-03T05:36:40;97544.00;;;0.26;100.00
58239;BME280;44037;55.638;37.356;2023-03-03T05:39:07;97553.38;;;0.29;100.00
58239;BME280;44037;55.638;37.356;2023-03-03T05:41:34;97543.19;;;0.27;100.00
58239;BME280;44037;55.638;37.356;2023-03-03T05:44:01;97545.72;;;0.29;100.00
58239;BME280;44037;55.638;37.356;2023-03-03T05:46:28;97551.66;;;0.28;100.00
58239;BME280;44037;55.638;37.356;2023-03-03T05:48:56;97548.22;;;0.26;100.00
58239;BME280;44037;55.638;37.356;2023-03-03T05:51:23;97546.50;;;0.23;100.00
58239;BME280;44037;55.638;37.356;2023-03-03T05:53:51;97549.13;;;0.28;100.00
58239;BME280;44037;55.638;37.356;2023-03-03T05:56:19;97547.56;;;0.36;100.00
58239;BME280;44037;55.638;37.356;2023-03-03T05:58:46;97546.16;;;0.55;100.00
58239;BME280;44037;55.638;37.356;2023-03-03T06:01:13;97545.69;;;0.81;100.00
58239;BME280;44037;55.638;37.356;2023-03-03T06:03:40;97546.88;;;1.06;100.00
58239;BME280;44037;55.638;37.356;2023-03-03T06:06:07;97547.75;;;1.07;100.00
58239;BME280;44037;55.638;37.356;2023-03-03T06:08:35;97545.09;;;0.99;100.00
58239;BME280;44037;55.638;37.356;2023-03-03T06:11:03;97547.50;;;0.88;100.00
58239;BME280;44037;55.638;37.356;2023-03-03T06:13:30;97549.97;;;0.84;100.00
58239;BME280;44037;55.638;37.356;2023-03-03T06:15:58;97551.56;;;0.75;100.00
58239;BME280;44037;55.638;37.356;2023-03-03T06:18:25;97558.28;;;0.69;100.00
58239;BME280;44037;55.638;37.356;2023-03-03T06:20:52;97555.69;;;0.67;99.87
58239;BME280;44037;55.638;37.356;2023-03-03T06:23:20;97558.22;;;0.66;99.63
58239;BME280;44037;55.638;37.356;2023-03-03T06:25:47;97559.22;;;0.75;100.00
58239;BME280;44037;55.638;37.356;2023-03-03T06:28:15;97549.94;;;0.81;98.34
58239;BME280;44037;55.638;37.356;2023-03-03T06:30:42;97547.50;;;0.88;98.66
58239;BME280;44037;55.638;37.356;2023-03-03T06:33:10;97543.41;;;1.01;98.64
58239;BME280;44037;55.638;37.356;2023-03-03T06:35:37;97565.69;;;1.12;97.39
58239;BME280;44037;55.638;37.356;2023-03-03T06:38:04;97560.59;;;1.15;96.08
58239;BME280;44037;55.638;37.356;2023-03-03T06:40:31;97551.31;;;1.21;95.48
58239;BME280;44037;55.638;37.356;2023-03-03T06:42:58;97557.50;;;1.41;95.17
58239;BME280;44037;55.638;37.356;2023-03-03T06:45:28;97559.38;;;1.51;94.88
58239;BME280;44037;55.638;37.356;2023-03-03T06:47:55;97563.66;;;1.55;94.08
58239;BME280;44037;55.638;37.356;2023-03-03T06:50:22;97568.06;;;1.68;94.82
58239;BME280;44037;55.638;37.356;2023-03-03T06:52:57;97558.03;;;1.84;94.60
58239;BME280;44037;55.638;37.356;2023-03-03T06:55:26;97566.59;;;1.92;94.58
58239;BME280;44037;55.638;37.356;2023-03-03T06:57:53;97556.38;;;1.91;94.05
58239;BME280;44037;55.638;37.356;2023-03-03T07:00:24;97566.59;;;1.92;94.84
58239;BME280;44037;55.638;37.356;2023-03-03T07:02:57;97558.19;;;2.03;95.28
58239;BME280;44037;55.638;37.356;2023-03-03T07:05:26;97560.03;;;2.16;94.58
58239;BME280;44037;55.638;37.356;2023-03-03T07:07:54;97558.47;;;2.30;94.87
58239;BME280;44037;55.638;37.356;2023-03-03T07:10:23;97561.16;;;2.44;92.05
58239;BME280;44037;55.638;37.356;2023-03-03T07:12:51;97564.56;;;2.43;90.96
58239;BME280;44037;55.638;37.356;2023-03-03T07:15:21;97558.50;;;2.32;88.69
58239;BME280;44037;55.638;37.356;2023-03-03T07:17:52;97568.69;;;2.30;87.59
58239;BME280;44037;55.638;37.356;2023-03-03T07:20:29;97566.94;;;2.23;86.60
58239;BME280;44037;55.638;37.356;2023-03-03T07:22:58;97564.22;;;2.08;85.50
58239;BME280;44037;55.638;37.356;2023-03-03T07:25:29;97570.22;;;2.10;86.63
58239;BME280;44037;55.638;37.356;2023-03-03T07:27:59;97568.69;;;2.29;85.79
58239;BME280;44037;55.638;37.356;2023-03-03T07:30:28;97570.47;;;2.39;86.70
58239;BME280;44037;55.638;37.356;2023-03-03T07:32:57;97568.75;;;2.40;86.27
58239;BME280;44037;55.638;37.356;2023-03-03T07:35:46;97572.13;;;2.33;86.70
58239;BME280;44037;55.638;37.356;2023-03-03T07:41:02;97573.63;;;2.12;85.93
58239;BME280;44037;55.638;37.356;2023-03-03T07:43:33;97578.72;;;2.07;85.51
58239;BME280;44037;55.638;37.356;2023-03-03T07:46:14;97572.72;;;2.05;86.44
58239;BME280;44037;55.638;37.356;2023-03-03T07:48:43;97569.31;;;2.06;85.94
58239;BME280;44037;55.638;37.356;2023-03-03T07:51:17;97576.94;;;2.05;86.08
58239;BME280;44037;55.638;37.356;2023-03-03T07:53:47;97578.63;;;2.03;84.37
58239;BME280;44037;55.638;37.356;2023-03-03T07:56:18;97570.97;;;1.99;83.73
58239;BME280;44037;55.638;37.356;2023-03-03T07:58:48;97571.72;;;1.91;83.19
58239;BME280;44037;55.638;37.356;2023-03-03T08:01:37;97581.94;;;1.92;82.95
58239;BME280;44037;55.638;37.356;2023-03-03T08:04:14;97579.41;;;1.95;82.60
58239;BME280;44037;55.638;37.356;2023-03-03T08:06:54;97576.88;;;1.95;84.40
58239;BME280;44037;55.638;37.356;2023-03-03T08:09:40;97585.53;;;2.10;84.51
58239;BME280;44037;55.638;37.356;2023-03-03T08:12:34;97586.50;;;2.20;84.06
58239;BME280;44037;55.638;37.356;2023-03-03T08:15:21;97577.00;;;2.08;85.46
58239;BME280;44037;55.638;37.356;2023-03-03T08:17:50;97583.78;;;2.04;86.55
58239;BME280;44037;55.638;37.356;2023-03-03T08:20:47;97585.56;;;2.16;88.28
58239;BME280;44037;55.638;37.356;2023-03-03T08:23:18;97573.00;;;2.35;88.44
58239;BME280;44037;55.638;37.356;2023-03-03T08:25:47;97574.63;;;2.29;89.36
58239;BME280;44037;55.638;37.356;2023-03-03T08:28:15;97580.59;;;2.27;90.38
58239;BME280;44037;55.638;37.356;2023-03-03T08:30:43;97583.97;;;2.24;90.82
58239;BME280;44037;55.638;37.356;2023-03-03T08:33:10;97591.72;;;2.32;90.76
58239;BME280;44037;55.638;37.356;2023-03-03T08:35:37;97592.75;;;2.51;89.80
58239;BME280;44037;55.638;37.356;2023-03-03T08:38:06;97585.22;;;2.74;91.35
58239;BME280;44037;55.638;37.356;2023-03-03T08:40:34;97586.13;;;2.80;91.29
58239;BME280;44037;55.638;37.356;2023-03-03T08:43:02;97592.88;;;2.70;91.34
58239;BME280;44037;55.638;37.356;2023-03-03T08:45:30;97592.75;;;2.53;90.06
58239;BME280;44037;55.638;37.356;2023-03-03T08:47:57;97590.91;;;2.41;91.25
58239;BME280;44037;55.638;37.356;2023-03-03T08:50:26;97593.47;;;2.39;91.68
58239;BME280;44037;55.638;37.356;2023-03-03T08:52:54;97595.25;;;2.48;92.77
58239;BME280;44037;55.638;37.356;2023-03-03T08:55:21;97590.25;;;2.60;93.10
58239;BME280;44037;55.638;37.356;2023-03-03T08:57:50;97592.78;;;2.59;93.53
58239;BME280;44037;55.638;37.356;2023-03-03T09:00:17;97598.69;;;2.50;93.93
58239;BME280;44037;55.638;37.356;2023-03-03T09:02:44;97589.31;;;2.52;94.21
58239;BME280;44037;55.638;37.356;2023-03-03T09:05:12;97597.72;;;2.36;94.35
58239;BME280;44037;55.638;37.356;2023-03-03T09:07:40;97597.63;;;2.29;94.12
58239;BME280;44037;55.638;37.356;2023-03-03T09:10:08;97595.88;;;2.24;94.68
58239;BME280;44037;55.638;37.356;2023-03-03T09:12:38;97589.75;;;2.06;94.87
58239;BME280;44037;55.638;37.356;2023-03-03T09:15:22;97597.38;;;2.02;92.89
58239;BME280;44037;55.638;37.356;2023-03-03T09:17:49;97589.72;;;2.03;94.88
58239;BME280;44037;55.638;37.356;2023-03-03T09:20:33;97599.97;;;2.08;95.35
58239;BME280;44037;55.638;37.356;2023-03-03T09:23:24;97592.41;;;2.17;94.96
58239;BME280;44037;55.638;37.356;2023-03-03T09:25:53;97587.34;;;2.20;95.96
58239;BME280;44037;55.638;37.356;2023-03-03T09:28:23;97599.28;;;2.21;96.58
58239;BME280;44037;55.638;37.356;2023-03-03T09:30:55;97595.03;;;2.25;96.52
58239;BME280;44037;55.638;37.356;2023-03-03T09:33:28;97602.78;;;2.33;96.40
58239;BME280;44037;55.638;37.356;2023-03-03T09:36:03;97598.63;;;2.42;96.09
58239;BME280;44037;55.638;37.356;2023-03-03T09:38:34;97597.16;;;2.69;95.72
58239;BME280;44037;55.638;37.356;2023-03-03T09:45:05;97600.84;;;3.15;90.18
58239;BME280;44037;55.638;37.356;2023-03-03T09:47:50;97584.75;;;3.37;88.48
58239;BME280;44037;55.638;37.356;2023-03-03T09:50:31;97591.63;;;3.42;90.88
58239;BME280;44037;55.638;37.356;2023-03-03T09:53:12;97593.31;;;3.41;88.84
58239;BME280;44037;55.638;37.356;2023-03-03T09:55:49;97595.84;;;3.30;92.18
58239;BME280;44037;55.638;37.356;2023-03-03T09:58:31;97591.47;;;3.12;88.46
58239;BME280;44037;55.638;37.356;2023-03-03T10:01:10;97589.69;;;3.05;90.91
58239;BME280;44037;55.638;37.356;2023-03-03T10:04:05;97592.06;;;2.75;86.29
58239;BME280;44037;55.638;37.356;2023-03-03T10:06:39;97594.50;;;2.58;91.07
58239;BME280;44037;55.638;37.356;2023-03-03T10:09:30;97598.75;;;2.59;89.05
58239;BME280;44037;55.638;37.356;2023-03-03T10:12:05;97591.16;;;2.69;88.96
58239;BME280;44037;55.638;37.356;2023-03-03T10:14:48;97590.31;;;2.71;87.60
58239;BME280;44037;55.638;37.356;2023-03-03T10:17:25;97582.91;;;3.07;87.05
58239;BME280;44037;55.638;37.356;2023-03-03T10:20:08;97572.88;;;3.47;86.14
58239;BME280;44037;55.638;37.356;2023-03-03T10:22:49;97578.97;;;3.79;84.79
58239;BME280;44037;55.638;37.356;2023-03-03T10:25:27;97573.88;;;3.90;84.69
58239;BME280;44037;55.638;37.356;2023-03-03T10:28:09;97560.19;;;3.91;81.58
58239;BME280;44037;55.638;37.356;2023-03-03T10:30:49;97578.19;;;4.00;82.23
58239;BME280;44037;55.638;37.356;2023-03-03T10:33:23;97560.19;;;3.91;79.51
58239;BME280;44037;55.638;37.356;2023-03-03T10:36:16;97569.66;;;4.01;80.12
58239;BME280;44037;55.638;37.356;2023-03-03T10:38:51;97573.09;;;4.12;82.00
58239;BME280;44037;55.638;37.356;2023-03-03T10:41:36;97577.34;;;4.09;77.93
58239;BME280;44037;55.638;37.356;2023-03-03T10:44:24;97583.34;;;4.12;79.62
58239;BME280;44037;55.638;37.356;2023-03-03T10:47:04;97573.94;;;4.16;78.01
58239;BME280;44037;55.638;37.356;2023-03-03T10:49:46;97577.38;;;4.18;80.19
58239;BME280;44037;55.638;37.356;2023-03-03T10:52:31;97580.81;;;4.28;80.70
58239;BME280;44037;55.638;37.356;2023-03-03T10:55:20;97579.09;;;4.32;78.98
58239;BME280;44037;55.638;37.356;2023-03-03T11:00:39;97571.41;;;4.53;78.49
58239;BME280;44037;55.638;37.356;2023-03-03T11:03:38;97583.34;;;4.31;78.11
58239;BME280;44037;55.638;37.356;2023-03-03T11:06:13;97582.50;;;4.21;78.84
58239;BME280;44037;55.638;37.356;2023-03-03T11:08:49;97586.75;;;4.14;77.97
58239;BME280;44037;55.638;37.356;2023-03-03T11:11:25;97585.88;;;4.05;76.79
58239;BME280;44037;55.638;37.356;2023-03-03T11:14:02;97584.97;;;3.90;77.08
58239;BME280;44037;55.638;37.356;2023-03-03T11:16:41;97582.38;;;3.75;77.56
58239;BME280;44037;55.638;37.356;2023-03-03T11:19:30;97579.78;;;3.64;76.99
58239;BME280;44037;55.638;37.356;2023-03-03T11:22:07;97586.59;;;3.68;77.57
58239;BME280;44037;55.638;37.356;2023-03-03T11:24:49;97578.09;;;3.71;76.08
58239;BME280;44037;55.638;37.356;2023-03-03T11:27:31;97579.75;;;3.61;75.84
58239;BME280;44037;55.638;37.356;2023-03-03T11:30:24;97588.16;;;3.30;76.83
58239;BME280;44037;55.638;37.356;2023-03-03T11:33:00;97589.72;;;3.08;78.64
58239;BME280;44037;55.638;37.356;2023-03-03T11:35:40;97598.19;;;2.98;79.53
58239;BME280;44037;55.638;37.356;2023-03-03T11:38:22;97587.16;;;3.03;80.11
58239;BME280;44037;55.638;37.356;2023-03-03T11:40:54;97588.91;;;3.12;80.03
58239;BME280;44037;55.638;37.356;2023-03-03T11:43:27;97582.16;;;3.23;79.83
58239;BME280;44037;55.638;37.356;2023-03-03T11:46:00;97585.56;;;3.29;80.21
58239;BME280;44037;55.638;37.356;2023-03-03T11:48:35;97584.72;;;3.28;80.34
58239;BME280;44037;55.638;37.356;2023-03-03T11:51:05;97584.72;;;3.23;79.04
58239;BME280;44037;55.638;37.356;2023-03-03T11:53:53;97586.34;;;3.12;77.50
58239;BME280;44037;55.638;37.356;2023-03-03T11:56:27;97597.31;;;2.97;76.31
58239;BME280;44037;55.638;37.356;2023-03-03T11:59:09;97606.59;;;2.81;77.68
58239;BME280;44037;55.638;37.356;2023-03-03T12:01:44;97603.97;;;2.72;77.83
58239;BME280;44037;55.638;37.356;2023-03-03T12:04:19;97607.31;;;2.63;77.88
58239;BME280;44037;55.638;37.356;2023-03-03T12:06:56;97606.41;;;2.56;79.69
58239;BME280;44037;55.638;37.356;2023-03-03T12:09:38;97606.38;;;2.53;80.48
58239;BME280;44037;55.638;37.356;2023-03-03T12:12:13;97602.16;;;2.57;80.54
58239;BME280;44037;55.638;37.356;2023-03-03T12:15:06;97599.63;;;2.63;80.30
58239;BME280;44037;55.638;37.356;2023-03-03T12:17:50;97604.75;;;2.61;79.92
58239;BME280;44037;55.638;37.356;2023-03-03T12:20:30;97599.59;;;2.57;78.66
58239;BME280;44037;55.638;37.356;2023-03-03T12:23:09;97600.34;;;2.45;78.82
58239;BME280;44037;55.638;37.356;2023-03-03T12:25:40;97600.25;;;2.37;79.73
58239;BME280;44037;55.638;37.356;2023-03-03T12:28:16;97608.78;;;2.35;80.13
58239;BME280;44037;55.638;37.356;2023-03-03T12:31:10;97599.44;;;2.37;79.42
58239;BME280;44037;55.638;37.356;2023-03-03T12:33:51;97604.53;;;2.37;79.15
58239;BME280;44037;55.638;37.356;2023-03-03T12:36:35;97610.44;;;2.34;79.61
58239;BME280;44037;55.638;37.356;2023-03-03T12:39:13;97607.06;;;2.34;79.75
58239;BME280;44037;55.638;37.356;2023-03-03T12:41:47;97615.59;;;2.36;79.04
58239;BME280;44037;55.638;37.356;2023-03-03T12:44:25;97610.53;;;2.40;79.40
58239;BME280;44037;55.638;37.356;2023-03-03T12:46:58;97608.00;;;2.45;77.64
58239;BME280;44037;55.638;37.356;2023-03-03T12:49:35;97602.84;;;2.42;77.31
58239;BME280;44037;55.638;37.356;2023-03-03T12:52:12;97603.72;;;2.42;77.65
58239;BME280;44037;55.638;37.356;2023-03-03T12:55:00;97607.16;;;2.44;76.21
58239;BME280;44037;55.638;37.356;2023-03-03T12:57:35;97603.78;;;2.49;76.94
58239;BME280;44037;55.638;37.356;2023-03-03T13:00:21;97608.97;;;2.55;75.97
58239;BME280;44037;55.638;37.356;2023-03-03T13:02:58;97605.63;;;2.64;75.35
58239;BME280;44037;55.638;37.356;2023-03-03T13:05:33;97609.03;;;2.66;74.31
58239;BME280;44037;55.638;37.356;2023-03-03T13:08:36;97607.34;;;2.65;75.02
58239;BME280;44037;55.638;37.356;2023-03-03T13:11:30;97608.16;;;2.60;73.76
58239;BME280;44037;55.638;37.356;2023-03-03T13:14:11;97612.34;;;2.55;73.85
58239;BME280;44037;55.638;37.356;2023-03-03T13:16:47;97613.19;;;2.51;73.00
58239;BME280;44037;55.638;37.356;2023-03-03T13:19:19;97603.78;;;2.49;73.44
58239;BME280;44037;55.638;37.356;2023-03-03T13:21:51;97613.19;;;2.51;73.86
58239;BME280;44037;55.638;37.356;2023-03-03T13:24:27;97602.16;;;2.57;72.80
58239;BME280;44037;55.638;37.356;2023-03-03T13:26:57;97607.28;;;2.60;73.12
58239;BME280;44037;55.638;37.356;2023-03-03T13:29:32;97603.03;;;2.62;72.52
58239;BME280;44037;55.638;37.356;2023-03-03T13:32:07;97603.06;;;2.65;73.07
58239;BME280;44037;55.638;37.356;2023-03-03T13:34:42;97605.66;;;2.68;72.85
58239;BME280;44037;55.638;37.356;2023-03-03T13:37:20;97600.50;;;2.67;72.11
58239;BME280;44037;55.638;37.356;2023-03-03T13:39:55;97597.94;;;2.65;73.08
58239;BME280;44037;55.638;37.356;2023-03-03T13:42:31;97608.19;;;2.65;72.75
58239;BME280;44037;55.638;37.356;2023-03-03T13:45:05;97597.94;;;2.64;72.81
58239;BME280;44037;55.638;37.356;2023-03-03T13:47:39;97604.72;;;2.58;72.80
58239;BME280;44037;55.638;37.356;2023-03-03T13:50:18;97595.28;;;2.53;71.05
58239;BME280;44037;55.638;37.356;2023-03-03T13:52:57;97596.91;;;2.43;71.83
58239;BME280;44037;55.638;37.356;2023-03-03T13:55:33;97602.81;;;2.36;70.06